sensor_id;sensor_type;location;lat;lon;timestamp;P1;durP1;ratioP1;P2;durP2;ratioP2
74810;SDS011;63340;48.404;-4.506;2022-12-18T00:02:00;33.00;;;30.75;;
74810;SDS011;63340;48.404;-4.506;2022-12-18T00:04:26;34.25;;;27.00;;
74810;SDS011;63340;48.404;-4.506;2022-12-18T00:06:51;38.25;;;33.25;;
74810;SDS011;63340;48.404;-4.506;2022-12-18T00:09:17;31.25;;;28.75;;
74810;SDS011;63340;48.404;-4.506;2022-12-18T00:11:43;35.75;;;28.00;;
74810;SDS011;63340;48.404;-4.506;2022-12-18T00:14:09;35.75;;;33.75;;
74810;SDS011;63340;48.404;-4.506;2022-12-18T00:16:36;31.75;;;26.25;;
74810;SDS011;63340;48.404;-4.506;2022-12-18T00:19:02;38.75;;;33.50;;
74810;SDS011;63340;48.404;-4.506;2022-12-18T00:21:29;33.00;;;31.25;;
74810;SDS011;63340;48.404;-4.506;2022-12-18T00:23:56;30.50;;;30.25;;
74810;SDS011;63340;48.404;-4.506;2022-12-18T00:26:23;28.25;;;28.25;;
74810;SDS011;63340;48.404;-4.506;2022-12-18T00:28:51;31.25;;;30.50;;
74810;SDS011;63340;48.404;-4.506;2022-12-18T00:31:18;32.50;;;29.25;;
74810;SDS011;63340;48.404;-4.506;2022-12-18T00:33:45;31.50;;;28.25;;
74810;SDS011;63340;48.404;-4.506;2022-12-18T00:36:12;27.25;;;26.75;;
74810;SDS011;63340;48.404;-4.506;2022-12-18T00:38:49;31.50;;;30.00;;
74810;SDS011;63340;48.404;-4.506;2022-12-18T00:41:15;28.25;;;27.25;;
74810;SDS011;63340;48.404;-4.506;2022-12-18T00:44:02;25.75;;;24.75;;
74810;SDS011;63340;48.404;-4.506;2022-12-18T00:46:28;21.00;;;19.75;;
74810;SDS011;63340;48.404;-4.506;2022-12-18T00:48:53;30.50;;;28.00;;
74810;SDS011;63340;48.404;-4.506;2022-12-18T00:51:18;37.00;;;32.25;;
74810;SDS011;63340;48.404;-4.506;2022-12-18T00:53:44;26.75;;;23.25;;
74810;SDS011;63340;48.404;-4.506;2022-12-18T00:56:09;19.50;;;14.75;;
74810;SDS011;63340;48.404;-4.506;2022-12-18T00:58:34;37.75;;;35.25;;
74810;SDS011;63340;48.404;-4.506;2022-12-18T01:01:00;34.25;;;30.75;;
74810;SDS011;63340;48.404;-4.506;2022-12-18T01:03:25;38.50;;;34.75;;
74810;SDS011;63340;48.404;-4.506;2022-12-18T01:05:51;33.75;;;32.50;;
74810;SDS011;63340;48.404;-4.506;2022-12-18T01:08:16;26.50;;;25.75;;
74810;SDS011;63340;48.404;-4.506;2022-12-18T01:10:41;35.50;;;34.25;;
74810;SDS011;63340;48.404;-4.506;2022-12-18T01:13:07;31.50;;;31.50;;
74810;SDS011;63340;48.404;-4.506;2022-12-18T01:15:33;34.75;;;33.00;;
74810;SDS011;63340;48.404;-4.506;2022-12-18T01:17:58;32.25;;;31.50;;
74810;SDS011;63340;48.404;-4.506;2022-12-18T01:20:24;36.25;;;32.00;;
74810;SDS011;63340;48.404;-4.506;2022-12-18T01:22:49;33.50;;;32.25;;
74810;SDS011;63340;48.404;-4.506;2022-12-18T01:25:15;34.00;;;30.25;;
74810;SDS011;63340;48.404;-4.506;2022-12-18T01:27:40;31.00;;;27.50;;
74810;SDS011;63340;48.404;-4.506;2022-12-18T01:30:06;31.75;;;28.50;;
74810;SDS011;63340;48.404;-4.506;2022-12-18T01:32:32;35.75;;;35.75;;
74810;SDS011;63340;48.404;-4.506;2022-12-18T01:34:57;42.50;;;34.50;;
74810;SDS011;63340;48.404;-4.506;2022-12-18T01:37:23;35.50;;;31.00;;
74810;SDS011;63340;48.404;-4.506;2022-12-18T01:39:49;35.00;;;29.50;;
74810;SDS011;63340;48.404;-4.506;2022-12-18T01:42:15;42.50;;;37.00;;
74810;SDS011;63340;48.404;-4.506;2022-12-18T01:52:46;42.75;;;37.25;;
74810;SDS011;63340;48.404;-4.506;2022-12-18T01:55:14;35.50;;;31.75;;
74810;SDS011;63340;48.404;-4.506;2022-12-18T01:57:43;30.50;;;29.75;;
74810;SDS011;63340;48.404;-4.506;2022-12-18T02:00:17;26.00;;;22.75;;
74810;SDS011;63340;48.404;-4.506;2022-12-18T02:02:44;39.00;;;37.50;;
74810;SDS011;63340;48.404;-4.506;2022-12-18T02:05:12;35.25;;;31.75;;
74810;SDS011;63340;48.404;-4.506;2022-12-18T02:10:31;36.25;;;33.00;;
74810;SDS011;63340;48.404;-4.506;2022-12-18T02:18:11;34.75;;;32.25;;
74810;SDS011;63340;48.404;-4.506;2022-12-18T02:20:48;43.25;;;38.75;;
74810;SDS011;63340;48.404;-4.506;2022-12-18T02:31:36;34.50;;;29.50;;
74810;SDS011;63340;48.404;-4.506;2022-12-18T02:34:07;30.75;;;27.75;;
74810;SDS011;63340;48.404;-4.506;2022-12-18T02:36:34;34.00;;;31.75;;
74810;SDS011;63340;48.404;-4.506;2022-12-18T02:39:03;33.50;;;33.50;;
74810;SDS011;63340;48.404;-4.506;2022-12-18T02:41:32;34.75;;;32.50;;
74810;SDS011;63340;48.404;-4.506;2022-12-18T02:44:01;40.50;;;34.25;;
74810;SDS011;63340;48.404;-4.506;2022-12-18T02:46:35;36.00;;;34.75;;
74810;SDS011;63340;48.404;-4.506;2022-12-18T03:01:02;37.50;;;33.75;;
74810;SDS011;63340;48.404;-4.506;2022-12-18T03:03:19;34.75;;;34.50;;
74810;SDS011;63340;48.404;-4.506;2022-12-18T03:08:41;34.50;;;29.25;;
74810;SDS011;63340;48.404;-4.506;2022-12-18T03:11:10;35.50;;;33.25;;
74810;SDS011;63340;48.404;-4.506;2022-12-18T03:13:49;33.25;;;31.00;;
74810;SDS011;63340;48.404;-4.506;2022-12-18T03:16:22;32.00;;;30.50;;
74810;SDS011;63340;48.404;-4.506;2022-12-18T03:18:53;38.75;;;35.25;;
74810;SDS011;63340;48.404;-4.506;2022-12-18T03:21:23;33.00;;;28.75;;
74810;SDS011;63340;48.404;-4.506;2022-12-18T03:23:57;23.00;;;23.00;;
74810;SDS011;63340;48.404;-4.506;2022-12-18T03:26:24;35.50;;;34.00;;
74810;SDS011;63340;48.404;-4.506;2022-12-18T03:28:53;28.50;;;26.00;;
74810;SDS011;63340;48.404;-4.506;2022-12-18T03:31:23;22.50;;;21.25;;
74810;SDS011;63340;48.404;-4.506;2022-12-18T03:33:54;28.75;;;24.00;;
74810;SDS011;63340;48.404;-4.506;2022-12-18T03:36:22;29.00;;;26.25;;
74810;SDS011;63340;48.404;-4.506;2022-12-18T03:38:48;33.75;;;29.75;;
74810;SDS011;63340;48.404;-4.506;2022-12-18T03:44:02;31.75;;;29.50;;
74810;SDS011;63340;48.404;-4.506;2022-12-18T03:47:05;32.75;;;31.75;;
74810;SDS011;63340;48.404;-4.506;2022-12-18T03:49:34;31.75;;;28.00;;
74810;SDS011;63340;48.404;-4.506;2022-12-18T03:52:05;34.25;;;30.50;;
74810;SDS011;63340;48.404;-4.506;2022-12-18T03:54:35;26.00;;;23.75;;
74810;SDS011;63340;48.404;-4.506;2022-12-18T03:57:06;29.75;;;28.75;;
74810;SDS011;63340;48.404;-4.506;2022-12-18T03:59:36;37.25;;;33.00;;
74810;SDS011;63340;48.404;-4.506;2022-12-18T04:02:04;31.25;;;30.25;;
74810;SDS011;63340;48.404;-4.506;2022-12-18T04:04:31;22.50;;;20.75;;
74810;SDS011;63340;48.404;-4.506;2022-12-18T04:06:59;30.00;;;28.25;;
74810;SDS011;63340;48.404;-4.506;2022-12-18T04:09:25;30.25;;;27.25;;
74810;SDS011;63340;48.404;-4.506;2022-12-18T04:11:51;28.00;;;28.00;;
74810;SDS011;63340;48.404;-4.506;2022-12-18T04:14:16;29.50;;;29.00;;
74810;SDS011;63340;48.404;-4.506;2022-12-18T04:16:42;30.00;;;27.50;;
74810;SDS011;63340;48.404;-4.506;2022-12-18T04:19:07;29.75;;;27.75;;
74810;SDS011;63340;48.404;-4.506;2022-12-18T04:21:33;26.50;;;25.50;;
74810;SDS011;63340;48.404;-4.506;2022-12-18T04:23:58;30.50;;;29.00;;
74810;SDS011;63340;48.404;-4.506;2022-12-18T04:26:23;27.50;;;26.00;;
74810;SDS011;63340;48.404;-4.506;2022-12-18T04:28:49;26.75;;;26.75;;
74810;SDS011;63340;48.404;-4.506;2022-12-18T04:31:14;25.00;;;23.00;;
74810;SDS011;63340;48.404;-4.506;2022-12-18T04:33:40;28.75;;;27.00;;
74810;SDS011;63340;48.404;-4.506;2022-12-18T04:36:05;28.75;;;26.50;;
74810;SDS011;63340;48.404;-4.506;2022-12-18T04:38:31;23.25;;;22.50;;
74810;SDS011;63340;48.404;-4.506;2022-12-18T04:40:57;25.00;;;24.75;;
74810;SDS011;63340;48.404;-4.506;2022-12-18T04:43:23;28.00;;;28.00;;
74810;SDS011;63340;48.404;-4.506;2022-12-18T04:45:48;25.00;;;22.00;;
74810;SDS011;63340;48.404;-4.506;2022-12-18T04:48:13;27.50;;;24.25;;
74810;SDS011;63340;48.404;-4.506;2022-12-18T04:50:39;22.00;;;21.75;;
74810;SDS011;63340;48.404;-4.506;2022-12-18T04:53:04;26.75;;;25.75;;
74810;SDS011;63340;48.404;-4.506;2022-12-18T04:55:30;31.50;;;28.50;;
74810;SDS011;63340;48.404;-4.506;2022-12-18T04:57:55;33.50;;;25.75;;
74810;SDS011;63340;48.404;-4.506;2022-12-18T05:00:21;29.25;;;25.75;;
74810;SDS011;63340;48.404;-4.506;2022-12-18T05:02:46;27.00;;;26.25;;
74810;SDS011;63340;48.404;-4.506;2022-12-18T05:05:12;26.50;;;24.25;;
74810;SDS011;63340;48.404;-4.506;2022-12-18T05:07:37;23.00;;;22.50;;
74810;SDS011;63340;48.404;-4.506;2022-12-18T05:10:03;29.75;;;23.00;;
74810;SDS011;63340;48.404;-4.506;2022-12-18T05:12:31;26.25;;;25.00;;
74810;SDS011;63340;48.404;-4.506;2022-12-18T05:14:57;30.25;;;28.50;;
74810;SDS011;63340;48.404;-4.506;2022-12-18T05:17:22;26.25;;;22.25;;
74810;SDS011;63340;48.404;-4.506;2022-12-18T05:19:47;21.75;;;20.25;;
74810;SDS011;63340;48.404;-4.506;2022-12-18T05:22:13;22.50;;;21.50;;
74810;SDS011;63340;48.404;-4.506;2022-12-18T05:24:38;27.00;;;23.75;;
74810;SDS011;63340;48.404;-4.506;2022-12-18T05:27:03;28.75;;;26.75;;
74810;SDS011;63340;48.404;-4.506;2022-12-18T05:29:29;20.25;;;18.25;;
74810;SDS011;63340;48.404;-4.506;2022-12-18T05:31:54;18.75;;;18.75;;
74810;SDS011;63340;48.404;-4.506;2022-12-18T05:34:20;26.00;;;23.00;;
74810;SDS011;63340;48.404;-4.506;2022-12-18T05:36:46;24.25;;;23.00;;
74810;SDS011;63340;48.404;-4.506;2022-12-18T05:39:11;27.00;;;22.25;;
74810;SDS011;63340;48.404;-4.506;2022-12-18T05:41:37;24.75;;;24.25;;
74810;SDS011;63340;48.404;-4.506;2022-12-18T05:44:02;26.75;;;24.00;;
74810;SDS011;63340;48.404;-4.506;2022-12-18T05:46:28;25.00;;;22.50;;
74810;SDS011;63340;48.404;-4.506;2022-12-18T05:48:54;22.75;;;21.50;;
74810;SDS011;63340;48.404;-4.506;2022-12-18T05:51:20;25.25;;;24.00;;
74810;SDS011;63340;48.404;-4.506;2022-12-18T05:53:47;26.75;;;24.00;;
74810;SDS011;63340;48.404;-4.506;2022-12-18T05:56:14;22.50;;;22.50;;
74810;SDS011;63340;48.404;-4.506;2022-12-18T05:58:41;27.75;;;23.00;;
74810;SDS011;63340;48.404;-4.506;2022-12-18T06:03:34;26.75;;;23.75;;
74810;SDS011;63340;48.404;-4.506;2022-12-18T06:06:00;30.00;;;28.75;;
74810;SDS011;63340;48.404;-4.506;2022-12-18T06:08:25;23.25;;;21.50;;
74810;SDS011;63340;48.404;-4.506;2022-12-18T06:10:51;21.75;;;19.75;;
74810;SDS011;63340;48.404;-4.506;2022-12-18T06:13:20;23.75;;;21.25;;
74810;SDS011;63340;48.404;-4.506;2022-12-18T06:15:45;25.75;;;23.75;;
74810;SDS011;63340;48.404;-4.506;2022-12-18T06:18:11;23.50;;;22.25;;
74810;SDS011;63340;48.404;-4.506;2022-12-18T06:20:36;23.25;;;22.25;;
74810;SDS011;63340;48.404;-4.506;2022-12-18T06:23:04;22.75;;;21.25;;
74810;SDS011;63340;48.404;-4.506;2022-12-18T06:25:30;20.50;;;18.00;;
74810;SDS011;63340;48.404;-4.506;2022-12-18T06:27:56;24.25;;;21.50;;
74810;SDS011;63340;48.404;-4.506;2022-12-18T06:30:21;21.75;;;21.25;;
74810;SDS011;63340;48.404;-4.506;2022-12-18T06:32:47;20.00;;;20.00;;
74810;SDS011;63340;48.404;-4.506;2022-12-18T06:35:13;23.00;;;18.50;;
74810;SDS011;63340;48.404;-4.506;2022-12-18T06:37:39;23.00;;;22.00;;
74810;SDS011;63340;48.404;-4.506;2022-12-18T06:40:04;22.25;;;21.00;;
74810;SDS011;63340;48.404;-4.506;2022-12-18T06:42:30;23.25;;;21.00;;
74810;SDS011;63340;48.404;-4.506;2022-12-18T06:44:57;19.25;;;17.50;;
74810;SDS011;63340;48.404;-4.506;2022-12-18T06:47:22;21.75;;;19.00;;
74810;SDS011;63340;48.404;-4.506;2022-12-18T06:49:47;18.00;;;18.00;;
74810;SDS011;63340;48.404;-4.506;2022-12-18T06:52:16;16.50;;;16.50;;
74810;SDS011;63340;48.404;-4.506;2022-12-18T06:54:41;23.00;;;19.75;;
74810;SDS011;63340;48.404;-4.506;2022-12-18T06:57:07;22.50;;;20.25;;
74810;SDS011;63340;48.404;-4.506;2022-12-18T06:59:32;18.75;;;17.75;;
74810;SDS011;63340;48.404;-4.506;2022-12-18T07:01:57;16.75;;;16.00;;
74810;SDS011;63340;48.404;-4.506;2022-12-18T07:04:27;18.75;;;15.75;;
74810;SDS011;63340;48.404;-4.506;2022-12-18T07:06:56;16.75;;;15.75;;
74810;SDS011;63340;48.404;-4.506;2022-12-18T07:09:22;16.00;;;15.50;;
74810;SDS011;63340;48.404;-4.506;2022-12-18T07:11:48;17.75;;;15.25;;
74810;SDS011;63340;48.404;-4.506;2022-12-18T07:14:13;12.75;;;12.00;;
74810;SDS011;63340;48.404;-4.506;2022-12-18T07:16:38;14.25;;;13.25;;
74810;SDS011;63340;48.404;-4.506;2022-12-18T07:19:04;15.00;;;12.25;;
74810;SDS011;63340;48.404;-4.506;2022-12-18T07:21:29;15.75;;;15.75;;
74810;SDS011;63340;48.404;-4.506;2022-12-18T07:23:55;16.00;;;14.50;;
74810;SDS011;63340;48.404;-4.506;2022-12-18T07:26:21;11.75;;;11.75;;
74810;SDS011;63340;48.404;-4.506;2022-12-18T07:28:47;12.25;;;12.25;;
74810;SDS011;63340;48.404;-4.506;2022-12-18T07:31:14;14.75;;;13.00;;
74810;SDS011;63340;48.404;-4.506;2022-12-18T07:33:41;11.75;;;11.75;;
74810;SDS011;63340;48.404;-4.506;2022-12-18T07:36:07;12.00;;;11.75;;
74810;SDS011;63340;48.404;-4.506;2022-12-18T07:38:34;10.00;;;10.00;;
74810;SDS011;63340;48.404;-4.506;2022-12-18T07:41:03;11.00;;;10.50;;
74810;SDS011;63340;48.404;-4.506;2022-12-18T07:43:31;9.00;;;8.25;;
74810;SDS011;63340;48.404;-4.506;2022-12-18T07:45:56;11.50;;;9.75;;
74810;SDS011;63340;48.404;-4.506;2022-12-18T07:48:22;11.00;;;11.00;;
74810;SDS011;63340;48.404;-4.506;2022-12-18T07:50:47;10.25;;;8.50;;
74810;SDS011;63340;48.404;-4.506;2022-12-18T07:53:13;10.50;;;9.75;;
74810;SDS011;63340;48.404;-4.506;2022-12-18T07:55:39;9.75;;;9.25;;
74810;SDS011;63340;48.404;-4.506;2022-12-18T07:58:06;8.00;;;8.00;;
74810;SDS011;63340;48.404;-4.506;2022-12-18T08:00:31;10.00;;;9.50;;
74810;SDS011;63340;48.404;-4.506;2022-12-18T08:02:57;12.00;;;9.75;;
74810;SDS011;63340;48.404;-4.506;2022-12-18T08:05:22;9.50;;;9.50;;
74810;SDS011;63340;48.404;-4.506;2022-12-18T08:07:48;9.75;;;9.25;;
74810;SDS011;63340;48.404;-4.506;2022-12-18T08:10:14;9.50;;;6.50;;
74810;SDS011;63340;48.404;-4.506;2022-12-18T08:12:39;8.00;;;6.00;;
74810;SDS011;63340;48.404;-4.506;2022-12-18T08:15:05;8.25;;;7.75;;
74810;SDS011;63340;48.404;-4.506;2022-12-18T08:17:31;8.00;;;7.75;;
74810;SDS011;63340;48.404;-4.506;2022-12-18T08:19:56;6.50;;;6.50;;
74810;SDS011;63340;48.404;-4.506;2022-12-18T08:22:21;8.75;;;8.75;;
74810;SDS011;63340;48.404;-4.506;2022-12-18T08:24:47;7.75;;;7.75;;
74810;SDS011;63340;48.404;-4.506;2022-12-18T08:27:12;6.25;;;6.00;;
74810;SDS011;63340;48.404;-4.506;2022-12-18T08:29:38;6.50;;;5.00;;
74810;SDS011;63340;48.404;-4.506;2022-12-18T08:32:04;8.00;;;6.75;;
74810;SDS011;63340;48.404;-4.506;2022-12-18T08:34:29;5.50;;;5.00;;
74810;SDS011;63340;48.404;-4.506;2022-12-18T08:36:55;7.75;;;7.50;;
74810;SDS011;63340;48.404;-4.506;2022-12-18T08:39:20;7.25;;;5.75;;
74810;SDS011;63340;48.404;-4.506;2022-12-18T08:41:46;5.75;;;5.75;;
74810;SDS011;63340;48.404;-4.506;2022-12-18T08:44:31;4.25;;;3.50;;
74810;SDS011;63340;48.404;-4.506;2022-12-18T08:47:04;5.50;;;4.00;;
74810;SDS011;63340;48.404;-4.506;2022-12-18T08:49:32;5.75;;;5.00;;
74810;SDS011;63340;48.404;-4.506;2022-12-18T08:51:58;4.50;;;4.50;;
74810;SDS011;63340;48.404;-4.506;2022-12-18T08:54:24;5.00;;;5.00;;
74810;SDS011;63340;48.404;-4.506;2022-12-18T08:56:49;7.50;;;6.00;;
74810;SDS011;63340;48.404;-4.506;2022-12-18T08:59:16;6.50;;;5.25;;
74810;SDS011;63340;48.404;-4.506;2022-12-18T09:01:42;5.00;;;5.00;;
74810;SDS011;63340;48.404;-4.506;2022-12-18T09:04:08;5.25;;;4.00;;
74810;SDS011;63340;48.404;-4.506;2022-12-18T09:06:34;5.00;;;5.00;;
74810;SDS011;63340;48.404;-4.506;2022-12-18T09:09:00;6.00;;;6.00;;
74810;SDS011;63340;48.404;-4.506;2022-12-18T09:11:26;6.00;;;5.75;;
74810;SDS011;63340;48.404;-4.506;2022-12-18T09:13:53;6.00;;;5.50;;
74810;SDS011;63340;48.404;-4.506;2022-12-18T09:16:19;4.00;;;4.00;;
74810;SDS011;63340;48.404;-4.506;2022-12-18T09:18:46;8.00;;;5.00;;
74810;SDS011;63340;48.404;-4.506;2022-12-18T09:21:16;6.50;;;6.50;;
74810;SDS011;63340;48.404;-4.506;2022-12-18T09:23:44;5.75;;;4.50;;
74810;SDS011;63340;48.404;-4.506;2022-12-18T09:26:14;6.00;;;5.00;;
74810;SDS011;63340;48.404;-4.506;2022-12-18T09:28:39;6.50;;;3.75;;
74810;SDS011;63340;48.404;-4.506;2022-12-18T09:31:05;6.25;;;5.75;;
74810;SDS011;63340;48.404;-4.506;2022-12-18T09:33:33;5.25;;;4.00;;
74810;SDS011;63340;48.404;-4.506;2022-12-18T09:36:03;6.50;;;5.25;;
74810;SDS011;63340;48.404;-4.506;2022-12-18T09:38:30;4.00;;;4.00;;
74810;SDS011;63340;48.404;-4.506;2022-12-18T09:40:57;5.00;;;5.00;;
74810;SDS011;63340;48.404;-4.506;2022-12-18T09:43:39;4.75;;;4.50;;
74810;SDS011;63340;48.404;-4.506;2022-12-18T09:46:10;7.75;;;6.00;;
74810;SDS011;63340;48.404;-4.506;2022-12-18T09:48:42;6.00;;;6.00;;
74810;SDS011;63340;48.404;-4.506;2022-12-18T09:51:15;4.50;;;4.25;;
74810;SDS011;63340;48.404;-4.506;2022-12-18T09:53:47;6.00;;;5.00;;
74810;SDS011;63340;48.404;-4.506;2022-12-18T09:56:20;6.50;;;5.75;;
74810;SDS011;63340;48.404;-4.506;2022-12-18T10:01:26;5.25;;;4.00;;
74810;SDS011;63340;48.404;-4.506;2022-12-18T10:03:53;9.75;;;6.50;;
74810;SDS011;63340;48.404;-4.506;2022-12-18T10:06:34;10.75;;;6.75;;
74810;SDS011;63340;48.404;-4.506;2022-12-18T10:12:00;5.00;;;5.00;;
74810;SDS011;63340;48.404;-4.506;2022-12-18T10:17:42;7.25;;;4.50;;
74810;SDS011;63340;48.404;-4.506;2022-12-18T10:25:50;7.75;;;5.50;;
74810;SDS011;63340;48.404;-4.506;2022-12-18T10:28:30;7.50;;;5.50;;
74810;SDS011;63340;48.404;-4.506;2022-12-18T10:30:57;6.25;;;6.00;;
74810;SDS011;63340;48.404;-4.506;2022-12-18T10:33:23;7.00;;;6.25;;
74810;SDS011;63340;48.404;-4.506;2022-12-18T10:35:52;7.00;;;5.00;;
74810;SDS011;63340;48.404;-4.506;2022-12-18T10:41:01;6.00;;;4.75;;
74810;SDS011;63340;48.404;-4.506;2022-12-18T10:46:11;6.25;;;4.00;;
74810;SDS011;63340;48.404;-4.506;2022-12-18T10:48:55;4.25;;;4.00;;
74810;SDS011;63340;48.404;-4.506;2022-12-18T10:51:43;6.75;;;5.50;;
74810;SDS011;63340;48.404;-4.506;2022-12-18T10:56:49;5.00;;;4.25;;
74810;SDS011;63340;48.404;-4.506;2022-12-18T10:59:15;7.25;;;5.75;;
74810;SDS011;63340;48.404;-4.506;2022-12-18T11:04:13;7.75;;;7.75;;
74810;SDS011;63340;48.404;-4.506;2022-12-18T11:09:40;4.00;;;4.00;;
74810;SDS011;63340;48.404;-4.506;2022-12-18T11:12:13;5.50;;;5.00;;
74810;SDS011;63340;48.404;-4.506;2022-12-18T11:14:42;4.25;;;3.00;;
74810;SDS011;63340;48.404;-4.506;2022-12-18T11:17:23;7.00;;;5.50;;
74810;SDS011;63340;48.404;-4.506;2022-12-18T11:19:58;5.75;;;4.00;;
74810;SDS011;63340;48.404;-4.506;2022-12-18T11:22:30;4.00;;;4.00;;
74810;SDS011;63340;48.404;-4.506;2022-12-18T11:27:37;5.00;;;5.00;;
74810;SDS011;63340;48.404;-4.506;2022-12-18T11:30:37;8.00;;;7.00;;
74810;SDS011;63340;48.404;-4.506;2022-12-18T11:33:01;6.25;;;4.00;;
74810;SDS011;63340;48.404;-4.506;2022-12-18T11:40:40;6.50;;;6.25;;
74810;SDS011;63340;48.404;-4.506;2022-12-18T11:45:53;7.75;;;6.00;;
74810;SDS011;63340;48.404;-4.506;2022-12-18T11:48:32;6.50;;;5.75;;
74810;SDS011;63340;48.404;-4.506;2022-12-18T11:51:03;7.75;;;5.00;;
74810;SDS011;63340;48.404;-4.506;2022-12-18T11:53:35;5.75;;;5.50;;
74810;SDS011;63340;48.404;-4.506;2022-12-18T11:59:19;7.00;;;6.00;;
74810;SDS011;63340;48.404;-4.506;2022-12-18T12:01:51;7.00;;;6.00;;
74810;SDS011;63340;48.404;-4.506;2022-12-18T12:07:34;6.00;;;5.00;;
74810;SDS011;63340;48.404;-4.506;2022-12-18T12:21:27;7.00;;;6.00;;
74810;SDS011;63340;48.404;-4.506;2022-12-18T12:29:54;8.00;;;7.00;;
74810;SDS011;63340;48.404;-4.506;2022-12-18T12:35:05;8.33;;;7.33;;
74810;SDS011;63340;48.404;-4.506;2022-12-18T12:37:38;9.25;;;8.50;;
74810;SDS011;63340;48.404;-4.506;2022-12-18T12:40:11;14.75;;;8.75;;
74810;SDS011;63340;48.404;-4.506;2022-12-18T12:42:46;7.75;;;7.50;;
74810;SDS011;63340;48.404;-4.506;2022-12-18T12:45:40;6.00;;;6.00;;
74810;SDS011;63340;48.404;-4.506;2022-12-18T12:50:50;9.25;;;7.00;;
74810;SDS011;63340;48.404;-4.506;2022-12-18T12:53:22;8.00;;;6.50;;
74810;SDS011;63340;48.404;-4.506;2022-12-18T12:55:52;9.00;;;7.75;;
74810;SDS011;63340;48.404;-4.506;2022-12-18T13:01:08;6.75;;;5.50;;
74810;SDS011;63340;48.404;-4.506;2022-12-18T13:09:15;9.00;;;8.00;;
74810;SDS011;63340;48.404;-4.506;2022-12-18T13:11:41;5.50;;;4.00;;
74810;SDS011;63340;48.404;-4.506;2022-12-18T13:14:34;8.00;;;5.25;;
74810;SDS011;63340;48.404;-4.506;2022-12-18T13:19:51;7.00;;;6.75;;
74810;SDS011;63340;48.404;-4.506;2022-12-18T13:22:29;4.75;;;4.75;;
74810;SDS011;63340;48.404;-4.506;2022-12-18T13:24:59;6.00;;;5.00;;
74810;SDS011;63340;48.404;-4.506;2022-12-18T13:38:25;4.25;;;3.25;;
74810;SDS011;63340;48.404;-4.506;2022-12-18T13:41:04;6.25;;;4.50;;
74810;SDS011;63340;48.404;-4.506;2022-12-18T13:43:54;7.75;;;5.75;;
74810;SDS011;63340;48.404;-4.506;2022-12-18T13:46:28;6.00;;;4.75;;
74810;SDS011;63340;48.404;-4.506;2022-12-18T13:51:42;6.75;;;5.75;;
74810;SDS011;63340;48.404;-4.506;2022-12-18T13:54:19;5.00;;;4.25;;
74810;SDS011;63340;48.404;-4.506;2022-12-18T13:57:02;6.50;;;3.00;;
74810;SDS011;63340;48.404;-4.506;2022-12-18T13:59:36;5.25;;;4.25;;
74810;SDS011;63340;48.404;-4.506;2022-12-18T14:02:12;6.25;;;5.00;;
74810;SDS011;63340;48.404;-4.506;2022-12-18T14:04:39;5.50;;;5.00;;
74810;SDS011;63340;48.404;-4.506;2022-12-18T14:07:21;5.00;;;3.25;;
74810;SDS011;63340;48.404;-4.506;2022-12-18T14:09:54;5.00;;;3.25;;
74810;SDS011;63340;48.404;-4.506;2022-12-18T14:12:24;7.00;;;5.00;;
74810;SDS011;63340;48.404;-4.506;2022-12-18T14:18:15;9.00;;;5.25;;
74810;SDS011;63340;48.404;-4.506;2022-12-18T14:20:47;5.75;;;4.25;;
74810;SDS011;63340;48.404;-4.506;2022-12-18T14:28:47;4.25;;;4.00;;
74810;SDS011;63340;48.404;-4.506;2022-12-18T14:31:19;4.75;;;3.00;;
74810;SDS011;63340;48.404;-4.506;2022-12-18T14:33:46;4.75;;;4.25;;
74810;SDS011;63340;48.404;-4.506;2022-12-18T14:36:14;4.50;;;4.00;;
74810;SDS011;63340;48.404;-4.506;2022-12-18T14:38:42;6.00;;;4.00;;
74810;SDS011;63340;48.404;-4.506;2022-12-18T14:41:12;6.50;;;5.75;;
74810;SDS011;63340;48.404;-4.506;2022-12-18T14:43:39;5.00;;;5.00;;
74810;SDS011;63340;48.404;-4.506;2022-12-18T14:46:27;3.75;;;3.75;;
74810;SDS011;63340;48.404;-4.506;2022-12-18T14:51:54;6.50;;;5.50;;
74810;SDS011;63340;48.404;-4.506;2022-12-18T14:54:25;5.75;;;4.00;;
74810;SDS011;63340;48.404;-4.506;2022-12-18T14:57:37;6.25;;;5.50;;
74810;SDS011;63340;48.404;-4.506;2022-12-18T15:00:06;5.00;;;5.00;;
74810;SDS011;63340;48.404;-4.506;2022-12-18T15:02:34;4.25;;;4.25;;
74810;SDS011;63340;48.404;-4.506;2022-12-18T15:05:02;7.75;;;6.00;;
74810;SDS011;63340;48.404;-4.506;2022-12-18T15:07:41;7.00;;;4.50;;
74810;SDS011;63340;48.404;-4.506;2022-12-18T15:18:21;4.25;;;4.00;;
74810;SDS011;63340;48.404;-4.506;2022-12-18T15:26:11;7.25;;;3.00;;
74810;SDS011;63340;48.404;-4.506;2022-12-18T15:31:28;5.25;;;5.00;;
74810;SDS011;63340;48.404;-4.506;2022-12-18T15:36:23;4.00;;;4.00;;
74810;SDS011;63340;48.404;-4.506;2022-12-18T15:38:53;8.00;;;5.25;;
74810;SDS011;63340;48.404;-4.506;2022-12-18T15:41:20;6.75;;;5.00;;
74810;SDS011;63340;48.404;-4.506;2022-12-18T15:43:49;7.00;;;5.00;;
74810;SDS011;63340;48.404;-4.506;2022-12-18T15:46:20;8.00;;;6.00;;
74810;SDS011;63340;48.404;-4.506;2022-12-18T15:48:48;5.50;;;5.00;;
74810;SDS011;63340;48.404;-4.506;2022-12-18T15:51:17;8.00;;;5.75;;
74810;SDS011;63340;48.404;-4.506;2022-12-18T15:53:45;3.50;;;3.00;;
74810;SDS011;63340;48.404;-4.506;2022-12-18T15:56:13;5.00;;;4.00;;
74810;SDS011;63340;48.404;-4.506;2022-12-18T15:58:59;9.00;;;5.00;;
74810;SDS011;63340;48.404;-4.506;2022-12-18T16:01:26;10.25;;;7.50;;
74810;SDS011;63340;48.404;-4.506;2022-12-18T16:03:52;6.25;;;5.00;;
74810;SDS011;63340;48.404;-4.506;2022-12-18T16:06:18;8.00;;;5.50;;
74810;SDS011;63340;48.404;-4.506;2022-12-18T16:08:44;6.00;;;4.25;;
74810;SDS011;63340;48.404;-4.506;2022-12-18T16:11:21;7.75;;;6.25;;
74810;SDS011;63340;48.404;-4.506;2022-12-18T16:14:03;9.25;;;6.25;;
74810;SDS011;63340;48.404;-4.506;2022-12-18T16:16:41;4.75;;;4.75;;
74810;SDS011;63340;48.404;-4.506;2022-12-18T16:19:06;6.25;;;5.25;;
74810;SDS011;63340;48.404;-4.506;2022-12-18T16:21:32;6.00;;;5.50;;
74810;SDS011;63340;48.404;-4.506;2022-12-18T16:23:57;6.00;;;6.00;;
74810;SDS011;63340;48.404;-4.506;2022-12-18T16:26:23;9.00;;;6.00;;
74810;SDS011;63340;48.404;-4.506;2022-12-18T16:28:48;7.50;;;6.25;;
74810;SDS011;63340;48.404;-4.506;2022-12-18T16:31:14;6.25;;;5.25;;
74810;SDS011;63340;48.404;-4.506;2022-12-18T16:33:40;8.50;;;6.00;;
74810;SDS011;63340;48.404;-4.506;2022-12-18T16:36:05;9.25;;;8.50;;
74810;SDS011;63340;48.404;-4.506;2022-12-18T16:38:31;6.00;;;5.50;;
74810;SDS011;63340;48.404;-4.506;2022-12-18T16:40:56;4.00;;;1.75;;
74810;SDS011;63340;48.404;-4.506;2022-12-18T16:43:40;9.50;;;6.50;;
74810;SDS011;63340;48.404;-4.506;2022-12-18T16:46:05;8.00;;;8.00;;
74810;SDS011;63340;48.404;-4.506;2022-12-18T16:48:31;6.50;;;6.00;;
74810;SDS011;63340;48.404;-4.506;2022-12-18T16:51:00;7.00;;;6.50;;
74810;SDS011;63340;48.404;-4.506;2022-12-18T16:53:27;9.00;;;6.00;;
74810;SDS011;63340;48.404;-4.506;2022-12-18T16:55:54;7.00;;;6.00;;
74810;SDS011;63340;48.404;-4.506;2022-12-18T16:58:20;5.00;;;3.75;;
74810;SDS011;63340;48.404;-4.506;2022-12-18T17:00:45;7.00;;;6.50;;
74810;SDS011;63340;48.404;-4.506;2022-12-18T17:03:11;7.00;;;5.75;;
74810;SDS011;63340;48.404;-4.506;2022-12-18T17:05:36;12.75;;;8.00;;
74810;SDS011;63340;48.404;-4.506;2022-12-18T17:08:02;9.00;;;6.00;;
74810;SDS011;63340;48.404;-4.506;2022-12-18T17:10:27;4.25;;;2.00;;
74810;SDS011;63340;48.404;-4.506;2022-12-18T17:12:53;7.75;;;6.50;;
74810;SDS011;63340;48.404;-4.506;2022-12-18T17:15:18;8.00;;;5.50;;
74810;SDS011;63340;48.404;-4.506;2022-12-18T17:17:43;7.00;;;6.50;;